createdAt,value
2019-02-16T00:01:11.950Z,102563.33
2019-02-16T00:03:42.057Z,102562.02
2019-02-16T00:06:15.109Z,102556.31
2019-02-16T00:08:45.233Z,102564.66
2019-02-16T00:11:15.646Z,102562.61
2019-02-16T00:13:46.310Z,102568.19
2019-02-16T00:16:16.590Z,102564.62
2019-02-16T00:18:46.531Z,102555.61
2019-02-16T00:21:16.733Z,102559.02
2019-02-16T00:23:46.707Z,102553.59
2019-02-16T00:26:16.931Z,102543.92
2019-02-16T00:28:47.025Z,102543.36
2019-02-16T00:31:17.131Z,102543.98
2019-02-16T00:33:47.174Z,102551.87
2019-02-16T00:36:17.241Z,102543.55
2019-02-16T00:38:47.242Z,102548.16
2019-02-16T00:41:17.339Z,102547.31
2019-02-16T00:43:47.303Z,102539.34
2019-02-16T00:46:17.543Z,102546.45
2019-02-16T00:48:47.592Z,102540.81
2019-02-16T00:51:17.540Z,102535.67
2019-02-16T00:53:47.790Z,102540.67
2019-02-16T00:56:17.729Z,102537.23
2019-02-16T00:58:48.095Z,102530.02
2019-02-16T01:01:18.164Z,102537.14
2019-02-16T01:03:48.125Z,102538.43
2019-02-16T01:06:19.342Z,102533.20
2019-02-16T01:08:49.266Z,102526.22
2019-02-16T01:11:19.337Z,102523.37
2019-02-16T01:13:49.283Z,102519.20
2019-02-16T01:16:19.614Z,102512.73
2019-02-16T01:18:49.589Z,102511.44
2019-02-16T01:21:22.903Z,102497.80
2019-02-16T01:23:51.255Z,102503.46
2019-02-16T01:26:21.155Z,102498.32
2019-02-16T01:28:51.115Z,102491.84
2019-02-16T01:31:21.050Z,102494.47
2019-02-16T01:33:50.966Z,102495.42
2019-02-16T01:36:21.182Z,102487.09
2019-02-16T01:38:51.091Z,102478.83
2019-02-16T01:41:21.082Z,102489.48
2019-02-16T01:43:51.321Z,102483.52
2019-02-16T01:46:21.379Z,102478.33
2019-02-16T01:48:51.374Z,102478.83
2019-02-16T01:51:21.301Z,102471.91
2019-02-16T01:53:51.275Z,102465.57
2019-02-16T01:56:21.769Z,102463.58
2019-02-16T01:58:51.727Z,102472.37
2019-02-16T02:01:21.958Z,102459.64
2019-02-16T02:03:51.898Z,102457.89
2019-02-16T02:06:21.826Z,102461.87
2019-02-16T02:08:51.755Z,102457.37
2019-02-16T02:11:21.720Z,102458.80
2019-02-16T02:13:51.655Z,102450.55
2019-02-16T02:16:21.858Z,102447.70
2019-02-16T02:18:52.096Z,102443.52
2019-02-16T02:21:21.982Z,102438.44
2019-02-16T02:23:51.914Z,102444.13
2019-02-16T02:26:21.824Z,102430.91
2019-02-16T02:28:52.072Z,102434.11
2019-02-16T02:31:22.275Z,102435.55
2019-02-16T02:33:52.227Z,102439.91
2019-02-16T02:36:22.424Z,102440.36
2019-02-16T02:38:52.454Z,102434.68
2019-02-16T02:41:22.451Z,102432.39
2019-02-16T02:43:52.407Z,102427.98
2019-02-16T02:46:22.345Z,102422.52
2019-02-16T02:48:52.701Z,102425.73
2019-02-16T02:51:22.875Z,102419.32
2019-02-16T02:53:53.143Z,102414.22
2019-02-16T02:56:23.090Z,102416.41
2019-02-16T02:58:53.318Z,102421.38
2019-02-16T03:01:23.212Z,102418.86
2019-02-16T03:03:53.430Z,102414.97
2019-02-16T03:06:23.382Z,102415.11
2019-02-16T03:08:53.573Z,102415.66
2019-02-16T03:11:23.781Z,102411.80
2019-02-16T03:13:53.693Z,102415.23
2019-02-16T03:16:23.696Z,102413.81
2019-02-16T03:18:53.640Z,102416.84
2019-02-16T03:21:24.171Z,102412.53
2019-02-16T03:23:54.308Z,102406.25
2019-02-16T03:26:39.672Z,102407.41
2019-02-16T03:30:11.326Z,102409.20
2019-02-16T03:33:41.037Z,102408.81
2019-02-16T03:36:50.452Z,102405.43
2019-02-16T03:39:27.980Z,102407.53
2019-02-16T03:41:57.923Z,102407.27
2019-02-16T03:44:27.835Z,102406.28
2019-02-16T03:46:57.770Z,102401.80
2019-02-16T03:49:27.949Z,102402.34
2019-02-16T03:51:57.837Z,102401.06
2019-02-16T03:54:27.752Z,102399.20
2019-02-16T03:56:57.689Z,102399.58
2019-02-16T03:59:27.836Z,102400.25
2019-02-16T04:01:57.741Z,102393.73
2019-02-16T04:04:27.973Z,102400.66
2019-02-16T04:06:58.189Z,102395.14
2019-02-16T04:09:28.160Z,102403.63
2019-02-16T04:11:58.052Z,102402.38
2019-02-16T04:14:28.236Z,102403.63
2019-02-16T04:16:58.142Z,102394.64
2019-02-16T04:19:28.043Z,102385.03
2019-02-16T04:21:58.249Z,102380.68
2019-02-16T04:24:28.492Z,102380.45
2019-02-16T04:26:58.420Z,102374.08
2019-02-16T04:29:28.342Z,102368.62
2019-02-16T04:31:58.546Z,102361.30
2019-02-16T04:34:28.484Z,102362.33
2019-02-16T04:36:58.406Z,102356.59
2019-02-16T04:39:28.312Z,102349.29
2019-02-16T04:41:58.647Z,102351.17
2019-02-16T04:44:28.543Z,102342.16
2019-02-16T04:46:58.496Z,102343.45
2019-02-16T04:49:28.414Z,102342.69
2019-02-16T04:51:58.404Z,102346.30
2019-02-16T04:54:28.396Z,102349.80
2019-02-16T04:56:58.359Z,102341.49
2019-02-16T04:59:28.289Z,102342.34
2019-02-16T05:01:58.218Z,102339.19
2019-02-16T05:04:28.123Z,102343.65
2019-02-16T05:06:58.618Z,102340.11
2019-02-16T05:09:28.615Z,102332.03
2019-02-16T05:11:58.605Z,102328.77
2019-02-16T05:14:28.844Z,102328.47
2019-02-16T05:16:59.143Z,102325.73
2019-02-16T05:19:29.138Z,102330.83
2019-02-16T05:21:59.442Z,102317.58
2019-02-16T05:24:29.329Z,102319.38
2019-02-16T05:26:59.248Z,102314.66
2019-02-16T05:29:29.192Z,102315.36
2019-02-16T05:31:59.384Z,102312.45
2019-02-16T05:34:29.287Z,102309.80
2019-02-16T05:36:59.211Z,102311.31
2019-02-16T05:39:29.166Z,102315.13
2019-02-16T05:41:59.114Z,102317.35
2019-02-16T05:44:29.038Z,102317.02
2019-02-16T05:46:59.214Z,102319.22
2019-02-16T05:49:29.126Z,102309.21
2019-02-16T05:51:59.343Z,102309.50
2019-02-16T05:54:29.266Z,102311.13
2019-02-16T05:56:59.486Z,102313.98
2019-02-16T05:59:29.655Z,102317.02
2019-02-16T06:01:59.563Z,102315.23
2019-02-16T06:04:29.507Z,102314.45
2019-02-16T06:06:59.426Z,102320.48
2019-02-16T06:09:29.628Z,102318.36
2019-02-16T06:11:59.808Z,102306.91
2019-02-16T06:14:30.023Z,102302.77
2019-02-16T06:16:59.943Z,102300.09
2019-02-16T06:19:30.160Z,102301.29
2019-02-16T06:22:00.411Z,102300.20
2019-02-16T06:24:30.298Z,102307.17
2019-02-16T06:27:00.215Z,102304.41
2019-02-16T06:29:30.537Z,102304.52
2019-02-16T06:32:00.425Z,102305.02
2019-02-16T06:34:32.284Z,102302.09
2019-02-16T06:37:04.720Z,102299.83
2019-02-16T06:39:34.991Z,102308.83
2019-02-16T06:42:04.901Z,102313.47
2019-02-16T06:44:34.825Z,102310.98
2019-02-16T06:47:04.721Z,102312.91
2019-02-16T06:49:35.095Z,102314.43
2019-02-16T06:52:05.295Z,102308.36
2019-02-16T06:54:35.533Z,102321.39
2019-02-16T06:57:12.192Z,102327.27
2019-02-16T06:59:42.094Z,102322.47
2019-02-16T07:02:13.545Z,102322.84
2019-02-16T07:04:43.450Z,102325.03
2019-02-16T07:07:13.356Z,102321.50
2019-02-16T07:09:44.140Z,102321.83
2019-02-16T07:12:14.078Z,102316.42
2019-02-16T07:14:44.027Z,102323.69
2019-02-16T07:17:31.786Z,102328.30
2019-02-16T07:20:02.050Z,102320.77
2019-02-16T07:22:32.027Z,102310.98
2019-02-16T07:25:02.214Z,102314.95
2019-02-16T07:27:32.392Z,102316.80
2019-02-16T07:30:02.328Z,102309.48
2019-02-16T07:32:32.243Z,102308.66
2019-02-16T07:35:02.178Z,102301.69
2019-02-16T07:37:33.091Z,102300.04
2019-02-16T07:40:03.102Z,102299.99
2019-02-16T07:43:01.356Z,102300.82
2019-02-16T07:45:55.999Z,102292.38
2019-02-16T07:48:35.447Z,102285.19
2019-02-16T07:51:24.881Z,102291.04
2019-02-16T07:54:13.941Z,102295.38
2019-02-16T07:56:52.371Z,102293.95
2019-02-16T07:59:40.637Z,102301.60
2019-02-16T08:02:16.621Z,102309.62
2019-02-16T08:05:02.138Z,102300.87
2019-02-16T08:07:51.329Z,102296.36
2019-02-16T08:10:27.622Z,102301.73
2019-02-16T08:13:17.378Z,102300.00
2019-02-16T08:15:52.938Z,102292.97
2019-02-16T08:18:46.627Z,102285.42
2019-02-16T08:21:54.017Z,102287.92
2019-02-16T08:24:33.015Z,102284.65
2019-02-16T08:27:10.555Z,102283.44
2019-02-16T08:30:01.321Z,102279.44
2019-02-16T08:32:51.844Z,102286.71
2019-02-16T08:35:42.354Z,102278.17
2019-02-16T08:38:43.766Z,102282.97
2019-02-16T08:41:32.946Z,102272.30
2019-02-16T08:44:21.834Z,102265.39
2019-02-16T08:47:14.148Z,102269.86
2019-02-16T08:49:49.994Z,102267.63
2019-02-16T08:52:42.567Z,102266.34
2019-02-16T08:55:34.953Z,102265.55
2019-02-16T08:58:16.271Z,102266.23
2019-02-16T09:00:53.598Z,102264.39
2019-02-16T09:03:35.493Z,102260.79
2019-02-16T09:06:31.038Z,102252.73
2019-02-16T09:09:11.446Z,102256.70
2019-02-16T09:11:54.910Z,102251.80
2019-02-16T09:14:33.983Z,102254.03
2019-02-16T09:17:18.584Z,102255.09
2019-02-16T09:20:17.166Z,102250.42
2019-02-16T09:22:58.742Z,102254.39
2019-02-16T09:25:49.749Z,102261.05
2019-02-16T09:28:26.930Z,102256.66
2019-02-16T09:31:18.864Z,102259.06
2019-02-16T09:34:07.090Z,102253.00
2019-02-16T09:36:53.128Z,102250.77
2019-02-16T09:39:32.651Z,102247.35
2019-02-16T09:42:25.308Z,102244.30
2019-02-16T09:45:05.969Z,102250.59
2019-02-16T09:47:43.603Z,102253.73
2019-02-16T09:50:37.335Z,102259.57
2019-02-16T09:53:23.860Z,102250.31
2019-02-16T09:56:01.984Z,102256.59
2019-02-16T09:58:40.196Z,102243.44
2019-02-16T10:01:15.746Z,102240.70
2019-02-16T10:04:05.496Z,102239.54
2019-02-16T10:06:45.818Z,102241.92
2019-02-16T10:09:33.665Z,102245.12
2019-02-16T10:12:13.503Z,102247.17
2019-02-16T10:14:53.581Z,102244.44
2019-02-16T10:17:42.520Z,102250.75
2019-02-16T10:20:19.981Z,102243.11
2019-02-16T10:23:21.177Z,102245.48
2019-02-16T10:26:12.164Z,102222.96
2019-02-16T10:28:50.435Z,102219.98
2019-02-16T10:31:39.388Z,102220.64
2019-02-16T10:34:27.145Z,102218.23
2019-02-16T10:37:25.107Z,102211.45
2019-02-16T10:40:08.000Z,102220.42
2019-02-16T10:42:55.925Z,102211.58
2019-02-16T10:45:40.628Z,102208.92
2019-02-16T10:48:19.789Z,102205.83
2019-02-16T10:51:08.683Z,102201.29
2019-02-16T10:53:56.855Z,102196.16
2019-02-16T10:56:39.939Z,102193.44
2019-02-16T10:59:35.547Z,102178.84
2019-02-16T11:02:11.167Z,102174.71
2019-02-16T11:04:56.843Z,102176.58
2019-02-16T11:07:34.242Z,102175.50
2019-02-16T11:10:20.063Z,102171.28
2019-02-16T11:13:14.285Z,102179.22
2019-02-16T11:16:10.072Z,102185.59
2019-02-16T11:19:08.400Z,102176.12
2019-02-16T11:22:09.982Z,102181.28
2019-02-16T11:25:17.311Z,102179.81
2019-02-16T11:28:08.375Z,102192.85
2019-02-16T11:30:56.085Z,102192.13
2019-02-16T11:33:46.161Z,102193.69
2019-02-16T11:36:33.910Z,102193.24
2019-02-16T11:39:10.902Z,102179.37
2019-02-16T11:41:49.988Z,102172.14
2019-02-16T11:44:37.816Z,102176.36
2019-02-16T11:47:25.140Z,102179.70
2019-02-16T11:50:04.051Z,102175.50
2019-02-16T11:52:54.174Z,102163.43
2019-02-16T11:55:47.039Z,102161.57
2019-02-16T11:58:33.346Z,102160.98
2019-02-16T12:01:09.219Z,102162.69
2019-02-16T12:03:51.739Z,102156.95
2019-02-16T12:06:29.310Z,102147.78
2019-02-16T12:09:23.831Z,102147.95
2019-02-16T12:12:11.613Z,102150.77
2019-02-16T12:14:53.238Z,102165.96
2019-02-16T12:17:38.112Z,102169.20
2019-02-16T12:20:21.322Z,102160.66
2019-02-16T12:23:12.339Z,102159.89
2019-02-16T12:26:07.120Z,102157.22
2019-02-16T12:28:56.018Z,102151.08
2019-02-16T12:31:43.840Z,102154.45
2019-02-16T12:34:20.595Z,102159.92
2019-02-16T12:36:57.491Z,102150.88
2019-02-16T12:39:43.379Z,102148.95
2019-02-16T12:42:32.258Z,102149.02
2019-02-16T12:45:12.587Z,102146.41
2019-02-16T12:47:57.277Z,102149.45
2019-02-16T12:50:35.593Z,102143.89
2019-02-16T12:53:24.707Z,102141.30
2019-02-16T12:56:12.469Z,102134.23
2019-02-16T12:59:00.405Z,102138.16
2019-02-16T13:01:40.546Z,102137.02
2019-02-16T13:04:26.678Z,102138.32
2019-02-16T13:07:14.826Z,102138.48
2019-02-16T13:10:00.088Z,102137.51
2019-02-16T13:12:52.037Z,102135.73
2019-02-16T13:15:32.467Z,102132.25
2019-02-16T13:18:23.340Z,102129.10
2019-02-16T13:21:21.735Z,102122.83
2019-02-16T13:23:58.221Z,102117.59
2019-02-16T13:26:43.812Z,102124.24
2019-02-16T13:29:33.788Z,102112.97
2019-02-16T13:32:21.554Z,102102.83
2019-02-16T13:35:07.440Z,102103.88
2019-02-16T13:37:50.852Z,102106.12
2019-02-16T13:40:46.134Z,102097.06
2019-02-16T13:43:25.911Z,102092.21
2019-02-16T13:46:09.960Z,102089.57
2019-02-16T13:48:47.787Z,102078.34
2019-02-16T13:51:22.901Z,102075.89
2019-02-16T13:54:02.627Z,102072.52
2019-02-16T13:56:40.787Z,102070.02
2019-02-16T13:59:20.716Z,102067.30
2019-02-16T14:02:10.179Z,102071.74
2019-02-16T14:04:47.147Z,102073.70
2019-02-16T14:07:35.033Z,102072.92
2019-02-16T14:10:40.076Z,102059.84
2019-02-16T14:13:28.988Z,102055.98
2019-02-16T14:16:04.132Z,102055.67
2019-02-16T14:18:34.069Z,102055.67
2019-02-16T14:21:04.010Z,102064.34
2019-02-16T14:23:33.939Z,102067.77
2019-02-16T14:26:03.869Z,102059.09
2019-02-16T14:28:34.183Z,102061.89
2019-02-16T14:31:04.516Z,102065.05
2019-02-16T14:33:39.443Z,102068.59
2019-02-16T14:36:09.358Z,102062.95
2019-02-16T14:38:48.696Z,102055.07
2019-02-16T14:41:19.068Z,102054.51
2019-02-16T14:43:49.010Z,102048.11
2019-02-16T14:46:18.964Z,102043.19
2019-02-16T14:48:50.072Z,102048.57
2019-02-16T14:51:20.272Z,102039.47
2019-02-16T14:53:50.264Z,102040.20
2019-02-16T14:56:20.255Z,102044.44
2019-02-16T14:58:50.474Z,102035.48
2019-02-16T15:01:20.646Z,102031.67
2019-02-16T15:03:50.656Z,102028.66
2019-02-16T15:06:20.836Z,102030.88
2019-02-16T15:08:50.788Z,102031.20
2019-02-16T15:11:20.771Z,102029.85
2019-02-16T15:13:50.861Z,102022.00
2019-02-16T15:16:20.805Z,102018.88
2019-02-16T15:18:50.803Z,102019.45
2019-02-16T15:21:20.809Z,102022.80
2019-02-16T15:23:51.091Z,102021.80
2019-02-16T15:26:28.276Z,102017.59
2019-02-16T15:28:53.134Z,102022.94
2019-02-16T15:31:23.044Z,102019.41
2019-02-16T15:33:53.099Z,102012.69
2019-02-16T15:36:24.239Z,102017.76
2019-02-16T15:38:54.283Z,102014.88
2019-02-16T15:41:24.745Z,102011.28
2019-02-16T15:43:54.848Z,102010.45
2019-02-16T15:46:25.131Z,102003.42
2019-02-16T15:48:55.041Z,102008.56
2019-02-16T15:51:25.069Z,102009.15
2019-02-16T15:53:55.377Z,102007.27
2019-02-16T15:56:25.633Z,102011.05
2019-02-16T15:58:55.870Z,102009.81
2019-02-16T16:01:26.160Z,102018.45
2019-02-16T16:03:56.428Z,102011.39
2019-02-16T16:06:26.367Z,102007.73
2019-02-16T16:09:15.538Z,101998.92
2019-02-16T16:11:58.195Z,102004.20
2019-02-16T16:14:37.840Z,102005.63
2019-02-16T16:17:16.481Z,102003.77
2019-02-16T16:20:08.391Z,102011.47
2019-02-16T16:22:57.659Z,102013.98
2019-02-16T16:25:58.737Z,102018.98
2019-02-16T16:28:39.499Z,102014.13
2019-02-16T16:31:19.330Z,102026.08
2019-02-16T16:34:26.414Z,102023.33
2019-02-16T16:37:24.356Z,102018.12
2019-02-16T16:40:16.627Z,102020.34
2019-02-16T16:42:53.406Z,102018.21
2019-02-16T16:45:33.670Z,102009.50
2019-02-16T16:48:15.750Z,102013.45
2019-02-16T16:50:54.993Z,102021.62
2019-02-16T16:53:38.832Z,102029.23
2019-02-16T16:56:28.590Z,102027.59
2019-02-16T16:59:09.455Z,102035.95
2019-02-16T17:01:50.572Z,102032.73
2019-02-16T17:04:29.373Z,102036.16
2019-02-16T17:07:06.821Z,102033.61
2019-02-16T17:10:01.971Z,102033.44
2019-02-16T17:12:42.454Z,102034.50
2019-02-16T17:15:22.311Z,102033.45
2019-02-16T17:17:57.980Z,102030.46
2019-02-16T17:20:36.909Z,102030.46
2019-02-16T17:23:22.468Z,102032.12
2019-02-16T17:26:06.115Z,102038.98
2019-02-16T17:28:57.803Z,102037.13
2019-02-16T17:31:46.698Z,102037.55
2019-02-16T17:34:41.342Z,102034.39
2019-02-16T17:37:24.009Z,102045.70
2019-02-16T17:39:59.659Z,102042.98
2019-02-16T17:42:47.374Z,102045.84
2019-02-16T17:45:39.402Z,102045.56
2019-02-16T17:48:34.763Z,102040.26
2019-02-16T17:51:22.436Z,102050.09
2019-02-16T17:54:11.307Z,102039.42
2019-02-16T17:56:54.262Z,102046.63
2019-02-16T17:59:35.009Z,102051.32
2019-02-16T18:02:20.711Z,102052.35
2019-02-16T18:05:12.942Z,102053.59
2019-02-16T18:08:12.674Z,102054.41
2019-02-16T18:10:51.791Z,102048.59
2019-02-16T18:13:31.737Z,102044.84
2019-02-16T18:16:08.725Z,102050.73
2019-02-16T18:18:47.323Z,102046.91
2019-02-16T18:21:35.185Z,102050.80
2019-02-16T18:24:09.750Z,102050.48
2019-02-16T18:26:56.629Z,102056.56
2019-02-16T18:29:42.673Z,102048.14
2019-02-16T18:32:31.782Z,102046.34
2019-02-16T18:35:24.034Z,102051.64
2019-02-16T18:38:19.273Z,102051.17
2019-02-16T18:40:56.971Z,102050.65
2019-02-16T18:43:33.912Z,102049.92
2019-02-16T18:46:21.709Z,102047.52
2019-02-16T18:49:12.244Z,102053.44
2019-02-16T18:51:49.008Z,102047.69
2019-02-16T18:54:44.603Z,102052.25
2019-02-16T18:57:25.567Z,102055.76
2019-02-16T19:00:13.486Z,102055.22
2019-02-16T19:03:20.689Z,102061.23
2019-02-16T19:06:17.377Z,102050.35
2019-02-16T19:08:58.446Z,102047.87
2019-02-16T19:11:39.625Z,102048.95
2019-02-16T19:14:37.902Z,102050.59
2019-02-16T19:17:25.152Z,102053.17
2019-02-16T19:20:14.379Z,102055.73
2019-02-16T19:22:53.148Z,102056.25
2019-02-16T19:25:31.259Z,102052.83
2019-02-16T19:28:08.030Z,102047.73
2019-02-16T19:31:15.620Z,102055.08
2019-02-16T19:34:20.173Z,102053.41
2019-02-16T19:37:01.301Z,102055.61
2019-02-16T19:39:49.346Z,102051.52
2019-02-16T19:42:37.043Z,102053.87
2019-02-16T19:45:17.971Z,102047.94
2019-02-16T19:47:58.635Z,102046.40
2019-02-16T19:51:05.935Z,102047.34
2019-02-16T19:53:51.230Z,102046.55
2019-02-16T19:56:40.360Z,102047.98
2019-02-16T19:59:19.437Z,102040.81
2019-02-16T20:02:09.460Z,102043.66
2019-02-16T20:04:52.688Z,102044.88
2019-02-16T20:07:32.262Z,102047.80
2019-02-16T20:10:24.812Z,102050.45
2019-02-16T20:13:12.514Z,102050.31
2019-02-16T20:16:10.307Z,102060.41
2019-02-16T20:18:57.836Z,102063.58
2019-02-16T20:21:52.101Z,102049.30
2019-02-16T20:24:34.786Z,102052.58
2019-02-16T20:27:17.666Z,102049.59
2019-02-16T20:30:09.519Z,102047.59
2019-02-16T20:32:49.437Z,102053.17
2019-02-16T20:35:41.093Z,102050.66
2019-02-16T20:38:17.444Z,102058.20
2019-02-16T20:40:56.463Z,102060.85
2019-02-16T20:43:38.566Z,102062.72
2019-02-16T20:46:26.472Z,102050.06
2019-02-16T20:49:15.446Z,102060.03
2019-02-16T20:51:52.043Z,102058.20
2019-02-16T20:54:40.903Z,102058.61
2019-02-16T20:57:30.575Z,102055.44
2019-02-16T21:00:08.806Z,102056.61
2019-02-16T21:02:47.544Z,102058.74
2019-02-16T21:05:29.851Z,102052.80
2019-02-16T21:08:27.948Z,102059.41
2019-02-16T21:11:32.372Z,102061.95
2019-02-16T21:14:12.599Z,102061.16
2019-02-16T21:16:52.057Z,102062.58
2019-02-16T21:19:41.358Z,102065.08
2019-02-16T21:22:24.070Z,102061.94
2019-02-16T21:25:06.065Z,102064.52
2019-02-16T21:27:40.985Z,102062.95
2019-02-16T21:30:21.856Z,102056.61
2019-02-16T21:32:58.738Z,102064.88
2019-02-16T21:35:50.625Z,102058.91
2019-02-16T21:38:27.707Z,102062.08
2019-02-16T21:41:20.201Z,102059.75
2019-02-16T21:44:16.350Z,102065.48
2019-02-16T21:47:10.666Z,102065.95
2019-02-16T21:50:17.962Z,102064.55
2019-02-16T21:53:05.573Z,102062.77
2019-02-16T21:55:52.401Z,102072.39
2019-02-16T21:58:52.252Z,102070.05
2019-02-16T22:01:44.143Z,102070.77
2019-02-16T22:04:20.028Z,102072.41
2019-02-16T22:07:24.456Z,102076.67
2019-02-16T22:10:19.254Z,102080.99
2019-02-16T22:13:07.460Z,102075.56
2019-02-16T22:15:37.395Z,102072.22
2019-02-16T22:18:07.650Z,102072.39
2019-02-16T22:20:38.189Z,102078.15
2019-02-16T22:23:08.198Z,102077.19
2019-02-16T22:25:38.438Z,102074.64
2019-02-16T22:28:17.939Z,102074.45
2019-02-16T22:30:40.371Z,102072.06
2019-02-16T22:33:11.915Z,102073.52
2019-02-16T22:35:41.999Z,102078.83
2019-02-16T22:38:11.968Z,102080.37
2019-02-16T22:40:41.941Z,102094.87
2019-02-16T22:43:11.946Z,102093.30
2019-02-16T22:45:41.946Z,102089.86
2019-02-16T22:48:12.480Z,102093.23
2019-02-16T22:50:42.718Z,102093.69
2019-02-16T22:53:12.741Z,102097.47
2019-02-16T22:55:43.007Z,102093.66
2019-02-16T22:58:14.243Z,102092.09
2019-02-16T23:00:49.346Z,102097.62
2019-02-16T23:03:19.774Z,102103.21
2019-02-16T23:05:50.002Z,102108.37
2019-02-16T23:08:19.921Z,102109.23
2019-02-16T23:10:50.193Z,102103.19
2019-02-16T23:13:20.225Z,102105.55
2019-02-16T23:15:50.233Z,102103.94
2019-02-16T23:18:20.910Z,102103.61
2019-02-16T23:20:50.867Z,102102.23
2019-02-16T23:23:20.937Z,102109.41
2019-02-16T23:25:51.365Z,102108.69
2019-02-16T23:28:21.707Z,102106.29
2019-02-16T23:30:51.623Z,102103.77
2019-02-16T23:33:21.888Z,102104.02
2019-02-16T23:35:52.037Z,102098.07
2019-02-16T23:38:21.991Z,102095.63
2019-02-16T23:40:51.908Z,102097.25
2019-02-16T23:43:21.897Z,102101.82
2019-02-16T23:45:52.617Z,102102.85
2019-02-16T23:48:22.553Z,102099.45
2019-02-16T23:50:52.551Z,102108.42
2019-02-16T23:53:22.913Z,102105.15
2019-02-16T23:55:53.205Z,102106.34
2019-02-16T23:58:23.681Z,102113.65
